Terminal Aerodrome Forecast
Issued by NWS Wilmington, OH

Current Version | Previous Version | Graphics & Text | Print | Product List | Glossary On
Versions: 1 2 3 4 5 6 7 8 9 10 11 12 13 14 15 16 17 18 19 20 21 22 23 24 25 26
000
FTUS41 KILN 170544
TAFILN
TAF
KILN 170544Z 1706/1806 14009KT 4SM -SHRA BR OVC060
      TEMPO 1706/1709 3SM -SHRA BR OVC018
     FM170900 16010KT 2SM -SHRA BR OVC016
     FM171500 23014KT P6SM OVC013
     FM171800 25014G22KT P6SM OVC025
     FM180000 26012G18KT P6SM OVC011=

USA.gov is the U.S. government's official web portal to all federal, state and local government web resources and services.